Vilamarxant, Spain
Current Conditions -  °F | °C
As of 7:00 PM on Saturday 25 Oct 2014 (Local Time) from LEBT Reporting Station
Clear Clear  
Wind Chill: 73°   Ceiling: Unl
Heat Index: 73°   Visibility: 6mi
Dew Point: 50°   Wind: 3mph
Humidity: 44%   Direction: 80°E
Pressure: 30.09"   Gusts: NA
Location:  39.57°N, 0.62°W
Report Text: LEBT 251700Z AUTO 08003KT 030V120 CAVOK 23/10 Q1019
Loading
Personal Weather Stations






























Interactive Weather Map
Tropical Storm Tracking
New forecast layout! Learn more

10-Day Weather Forecast

Advertisements
Track Severe Weather on mobile